sensor_id;sensor_type;location;lat;lon;timestamp;pressure;altitude;pressure_sealevel;temperature;humidity
60019;BME280;45870;42.528;26.740;2023-04-23T00:01:48;99710.72;;;13.76;45.24
60019;BME280;45870;42.528;26.740;2023-04-23T00:04:16;99721.94;;;13.85;44.48
60019;BME280;45870;42.528;26.740;2023-04-23T00:06:43;99749.19;;;14.22;44.50
60019;BME280;45870;42.528;26.740;2023-04-23T00:09:12;99752.81;;;14.06;44.85
60019;BME280;45870;42.528;26.740;2023-04-23T00:11:39;99749.69;;;14.40;43.76
60019;BME280;45870;42.528;26.740;2023-04-23T00:14:05;99746.06;;;14.62;43.15
60019;BME280;45870;42.528;26.740;2023-04-23T00:16:31;99751.41;;;14.52;43.02
60019;BME280;45870;42.528;26.740;2023-04-23T00:18:57;99750.38;;;14.31;43.62
60019;BME280;45870;42.528;26.740;2023-04-23T00:21:22;99744.94;;;14.31;43.65
60019;BME280;45870;42.528;26.740;2023-04-23T00:23:48;99748.94;;;14.23;43.87
60019;BME280;45870;42.528;26.740;2023-04-23T00:26:14;99750.41;;;13.82;44.81
60019;BME280;45870;42.528;26.740;2023-04-23T00:28:39;99724.84;;;13.78;44.65
60019;BME280;45870;42.528;26.740;2023-04-23T00:31:05;99749.50;;;13.98;44.91
60019;BME280;45870;42.528;26.740;2023-04-23T00:33:31;99757.13;;;14.01;44.84
60019;BME280;45870;42.528;26.740;2023-04-23T00:35:57;99755.00;;;14.04;44.49
60019;BME280;45870;42.528;26.740;2023-04-23T00:38:23;99761.31;;;13.87;44.48
60019;BME280;45870;42.528;26.740;2023-04-23T00:40:50;99754.81;;;13.67;45.46
60019;BME280;45870;42.528;26.740;2023-04-23T00:43:16;99741.09;;;14.00;44.36
60019;BME280;45870;42.528;26.740;2023-04-23T00:45:43;99762.38;;;13.86;44.82
60019;BME280;45870;42.528;26.740;2023-04-23T00:48:10;99757.75;;;14.09;43.92
60019;BME280;45870;42.528;26.740;2023-04-23T00:50:36;99755.00;;;14.04;43.98
60019;BME280;45870;42.528;26.740;2023-04-23T00:53:02;99759.09;;;13.63;44.93
60019;BME280;45870;42.528;26.740;2023-04-23T00:55:28;99758.47;;;13.56;45.28
60019;BME280;45870;42.528;26.740;2023-04-23T00:57:54;99759.97;;;13.90;44.53
60019;BME280;45870;42.528;26.740;2023-04-23T01:00:20;99730.31;;;13.83;44.50
60019;BME280;45870;42.528;26.740;2023-04-23T01:02:47;99752.91;;;13.45;45.43
60019;BME280;45870;42.528;26.740;2023-04-23T01:05:14;99754.94;;;13.33;45.75
60019;BME280;45870;42.528;26.740;2023-04-23T01:07:42;99751.53;;;13.43;46.10
60019;BME280;45870;42.528;26.740;2023-04-23T01:10:09;99725.56;;;13.47;45.30
60019;BME280;45870;42.528;26.740;2023-04-23T01:12:35;99757.00;;;13.48;45.50
60019;BME280;45870;42.528;26.740;2023-04-23T01:15:01;99756.34;;;13.58;44.97
60019;BME280;45870;42.528;26.740;2023-04-23T01:17:27;99759.22;;;12.96;45.95
60019;BME280;45870;42.528;26.740;2023-04-23T01:19:53;99757.66;;;13.17;45.33
60019;BME280;45870;42.528;26.740;2023-04-23T01:22:21;99750.13;;;13.19;44.88
60019;BME280;45870;42.528;26.740;2023-04-23T01:24:47;99735.88;;;13.28;44.45
60019;BME280;45870;42.528;26.740;2023-04-23T01:27:13;99752.16;;;13.28;45.12
60019;BME280;45870;42.528;26.740;2023-04-23T01:29:41;99763.34;;;13.15;45.34
60019;BME280;45870;42.528;26.740;2023-04-23T01:32:07;99729.91;;;12.93;44.88
60019;BME280;45870;42.528;26.740;2023-04-23T01:34:33;99759.53;;;13.33;44.64
60019;BME280;45870;42.528;26.740;2023-04-23T01:37:01;99727.84;;;13.00;44.20
60019;BME280;45870;42.528;26.740;2023-04-23T01:39:27;99756.50;;;13.29;44.47
60019;BME280;45870;42.528;26.740;2023-04-23T01:41:53;99760.75;;;13.64;43.76
60019;BME280;45870;42.528;26.740;2023-04-23T01:44:19;99765.16;;;13.10;44.51
60019;BME280;45870;42.528;26.740;2023-04-23T01:46:44;99763.09;;;13.00;44.30
60019;BME280;45870;42.528;26.740;2023-04-23T01:49:11;99769.66;;;13.04;44.23
60019;BME280;45870;42.528;26.740;2023-04-23T01:51:37;99765.72;;;12.62;45.22
60019;BME280;45870;42.528;26.740;2023-04-23T01:54:02;99766.78;;;12.94;44.12
60019;BME280;45870;42.528;26.740;2023-04-23T01:56:28;99763.75;;;12.90;44.53
60019;BME280;45870;42.528;26.740;2023-04-23T01:58:55;99772.69;;;13.24;43.11
60019;BME280;45870;42.528;26.740;2023-04-23T02:01:21;99768.00;;;13.20;43.85
60019;BME280;45870;42.528;26.740;2023-04-23T02:03:49;99774.75;;;12.84;44.08
60019;BME280;45870;42.528;26.740;2023-04-23T02:06:15;99770.47;;;13.21;43.77
60019;BME280;45870;42.528;26.740;2023-04-23T02:08:41;99776.13;;;13.20;43.98
60019;BME280;45870;42.528;26.740;2023-04-23T02:11:07;99773.78;;;12.90;45.56
60019;BME280;45870;42.528;26.740;2023-04-23T02:13:33;99773.59;;;12.80;45.45
60019;BME280;45870;42.528;26.740;2023-04-23T02:15:59;99766.78;;;12.94;44.94
60019;BME280;45870;42.528;26.740;2023-04-23T02:18:25;99764.09;;;12.94;44.81
60019;BME280;45870;42.528;26.740;2023-04-23T02:20:51;99770.16;;;13.01;45.29
60019;BME280;45870;42.528;26.740;2023-04-23T02:23:18;99767.94;;;13.15;44.26
60019;BME280;45870;42.528;26.740;2023-04-23T02:25:44;99769.31;;;12.67;45.98
60019;BME280;45870;42.528;26.740;2023-04-23T02:28:10;99770.06;;;12.96;45.15
60019;BME280;45870;42.528;26.740;2023-04-23T02:30:37;99774.25;;;13.20;43.94
60019;BME280;45870;42.528;26.740;2023-04-23T02:33:09;99780.75;;;12.86;44.67
60019;BME280;45870;42.528;26.740;2023-04-23T02:35:35;99777.13;;;12.64;44.80
60019;BME280;45870;42.528;26.740;2023-04-23T02:38:01;99774.84;;;12.72;44.23
60019;BME280;45870;42.528;26.740;2023-04-23T02:40:26;99768.91;;;12.75;44.74
60019;BME280;45870;42.528;26.740;2023-04-23T02:42:52;99772.06;;;12.84;44.77
60019;BME280;45870;42.528;26.740;2023-04-23T02:45:17;99772.63;;;12.86;44.85
60019;BME280;45870;42.528;26.740;2023-04-23T02:47:43;99771.16;;;13.12;44.19
60019;BME280;45870;42.528;26.740;2023-04-23T02:50:09;99769.66;;;13.04;44.73
60019;BME280;45870;42.528;26.740;2023-04-23T02:52:35;99776.06;;;12.98;44.67
60019;BME280;45870;42.528;26.740;2023-04-23T02:55:03;99765.28;;;13.03;44.61
60019;BME280;45870;42.528;26.740;2023-04-23T02:57:29;99766.34;;;13.02;45.14
60019;BME280;45870;42.528;26.740;2023-04-23T02:59:55;99773.66;;;12.85;44.86
60019;BME280;45870;42.528;26.740;2023-04-23T03:02:20;99781.72;;;12.96;44.67
60019;BME280;45870;42.528;26.740;2023-04-23T03:04:46;99766.63;;;12.84;44.48
60019;BME280;45870;42.528;26.740;2023-04-23T03:07:12;99774.19;;;12.65;45.36
60019;BME280;45870;42.528;26.740;2023-04-23T03:09:42;99774.91;;;12.61;45.16
60019;BME280;45870;42.528;26.740;2023-04-23T03:12:07;99785.56;;;12.50;45.05
60019;BME280;45870;42.528;26.740;2023-04-23T03:14:33;99782.03;;;12.67;45.35
60019;BME280;45870;42.528;26.740;2023-04-23T03:16:59;99781.22;;;12.99;44.76
60019;BME280;45870;42.528;26.740;2023-04-23T03:19:25;99784.59;;;12.90;44.76
60019;BME280;45870;42.528;26.740;2023-04-23T03:21:50;99758.00;;;12.87;44.41
60019;BME280;45870;42.528;26.740;2023-04-23T03:24:16;99790.50;;;13.03;45.05
60019;BME280;45870;42.528;26.740;2023-04-23T03:26:42;99794.53;;;13.18;44.72
60019;BME280;45870;42.528;26.740;2023-04-23T03:29:07;99789.28;;;13.28;44.51
60019;BME280;45870;42.528;26.740;2023-04-23T03:31:34;99795.97;;;13.42;44.10
60019;BME280;45870;42.528;26.740;2023-04-23T03:34:00;99799.72;;;13.58;44.06
60019;BME280;45870;42.528;26.740;2023-04-23T03:36:26;99791.97;;;13.28;44.54
60019;BME280;45870;42.528;26.740;2023-04-23T03:38:52;99793.03;;;13.43;44.08
60019;BME280;45870;42.528;26.740;2023-04-23T03:41:17;99792.38;;;13.36;43.85
60019;BME280;45870;42.528;26.740;2023-04-23T03:43:43;99788.94;;;14.33;44.65
60019;BME280;45870;42.528;26.740;2023-04-23T03:46:09;99794.56;;;12.39;46.87
60019;BME280;45870;42.528;26.740;2023-04-23T03:48:34;99791.34;;;13.81;45.58
60019;BME280;45870;42.528;26.740;2023-04-23T03:51:00;99797.25;;;15.48;44.17
60019;BME280;45870;42.528;26.740;2023-04-23T03:53:26;99802.53;;;16.37;45.50
60019;BME280;45870;42.528;26.740;2023-04-23T03:55:52;99800.13;;;17.22;43.56
60019;BME280;45870;42.528;26.740;2023-04-23T03:58:18;99802.81;;;16.41;40.83
60019;BME280;45870;42.528;26.740;2023-04-23T04:00:44;99808.50;;;15.62;43.05
60019;BME280;45870;42.528;26.740;2023-04-23T04:03:10;99807.78;;;17.20;41.92
60019;BME280;45870;42.528;26.740;2023-04-23T04:05:35;99792.75;;;18.66;38.77
60019;BME280;45870;42.528;26.740;2023-04-23T04:08:01;99789.44;;;20.08;36.51
60019;BME280;45870;42.528;26.740;2023-04-23T04:10:27;99812.97;;;20.32;33.90
60019;BME280;45870;42.528;26.740;2023-04-23T04:12:52;99823.06;;;21.25;34.06
60019;BME280;45870;42.528;26.740;2023-04-23T04:15:19;99802.69;;;22.13;33.96
60019;BME280;45870;42.528;26.740;2023-04-23T04:17:45;99819.22;;;23.43;33.08
60019;BME280;45870;42.528;26.740;2023-04-23T04:20:12;99822.97;;;23.78;30.17
60019;BME280;45870;42.528;26.740;2023-04-23T04:22:38;99830.66;;;23.98;28.88
60019;BME280;45870;42.528;26.740;2023-04-23T04:25:04;99788.59;;;24.41;28.79
60019;BME280;45870;42.528;26.740;2023-04-23T04:27:30;99836.06;;;21.52;31.66
60019;BME280;45870;42.528;26.740;2023-04-23T04:29:59;99787.00;;;22.41;29.42
60019;BME280;45870;42.528;26.740;2023-04-23T04:32:26;99829.88;;;21.74;30.98
60019;BME280;45870;42.528;26.740;2023-04-23T04:34:52;99844.63;;;20.20;33.09
60019;BME280;45870;42.528;26.740;2023-04-23T04:37:18;99835.88;;;21.76;31.03
60019;BME280;45870;42.528;26.740;2023-04-23T04:39:45;99839.06;;;25.53;25.85
60019;BME280;45870;42.528;26.740;2023-04-23T04:42:11;99852.44;;;26.56;24.57
60019;BME280;45870;42.528;26.740;2023-04-23T04:44:37;99852.47;;;26.76;23.99
60019;BME280;45870;42.528;26.740;2023-04-23T04:47:04;99858.75;;;27.60;23.29
60019;BME280;45870;42.528;26.740;2023-04-23T04:49:29;99862.84;;;26.79;24.12
60019;BME280;45870;42.528;26.740;2023-04-23T04:51:55;99855.56;;;28.55;22.52
60019;BME280;45870;42.528;26.740;2023-04-23T04:54:21;99862.00;;;29.23;21.66
60019;BME280;45870;42.528;26.740;2023-04-23T04:56:46;99860.91;;;29.40;21.75
60019;BME280;45870;42.528;26.740;2023-04-23T04:59:12;99857.88;;;28.65;22.46
60019;BME280;45870;42.528;26.740;2023-04-23T05:01:38;99861.13;;;28.55;22.90
60019;BME280;45870;42.528;26.740;2023-04-23T05:04:05;99846.63;;;29.13;22.28
60019;BME280;45870;42.528;26.740;2023-04-23T05:06:30;99873.88;;;29.63;21.81
60019;BME280;45870;42.528;26.740;2023-04-23T05:08:56;99866.59;;;29.87;22.09
60019;BME280;45870;42.528;26.740;2023-04-23T05:11:22;99877.13;;;29.65;22.12
60019;BME280;45870;42.528;26.740;2023-04-23T05:13:47;99875.84;;;29.63;22.18
60019;BME280;45870;42.528;26.740;2023-04-23T05:16:13;99870.72;;;29.93;22.14
60019;BME280;45870;42.528;26.740;2023-04-23T05:18:40;99870.28;;;27.29;26.10
60019;BME280;45870;42.528;26.740;2023-04-23T05:21:06;99865.22;;;25.64;27.54
60019;BME280;45870;42.528;26.740;2023-04-23T05:23:33;99877.75;;;26.96;27.05
60019;BME280;45870;42.528;26.740;2023-04-23T05:25:59;99842.22;;;26.27;27.37
60019;BME280;45870;42.528;26.740;2023-04-23T05:28:24;99870.53;;;25.86;28.51
60019;BME280;45870;42.528;26.740;2023-04-23T05:30:50;99885.91;;;28.36;24.81
60019;BME280;45870;42.528;26.740;2023-04-23T05:33:16;99887.03;;;28.47;24.91
60019;BME280;45870;42.528;26.740;2023-04-23T05:35:42;99883.28;;;27.94;25.36
60019;BME280;45870;42.528;26.740;2023-04-23T05:38:08;99889.03;;;26.61;27.57
60019;BME280;45870;42.528;26.740;2023-04-23T05:40:34;99884.59;;;29.21;23.60
60019;BME280;45870;42.528;26.740;2023-04-23T05:43:00;99891.44;;;23.18;32.42
60019;BME280;45870;42.528;26.740;2023-04-23T05:45:26;99890.88;;;26.78;26.73
60019;BME280;45870;42.528;26.740;2023-04-23T05:47:53;99887.25;;;25.90;28.60
60019;BME280;45870;42.528;26.740;2023-04-23T05:50:19;99885.38;;;27.19;26.76
60019;BME280;45870;42.528;26.740;2023-04-23T05:52:45;99891.09;;;28.61;24.84
60019;BME280;45870;42.528;26.740;2023-04-23T05:55:11;99767.69;;;22.55;32.49
60019;BME280;45870;42.528;26.740;2023-04-23T05:57:39;99888.69;;;28.36;25.21
60019;BME280;45870;42.528;26.740;2023-04-23T06:00:06;99888.28;;;27.02;27.15
60019;BME280;45870;42.528;26.740;2023-04-23T06:02:36;99890.13;;;24.95;30.60
60019;BME280;45870;42.528;26.740;2023-04-23T06:05:03;99888.44;;;27.39;27.66
60019;BME280;45870;42.528;26.740;2023-04-23T06:07:28;99893.72;;;29.62;24.22
60019;BME280;45870;42.528;26.740;2023-04-23T06:09:54;99894.78;;;22.93;32.86
60019;BME280;45870;42.528;26.740;2023-04-23T06:12:20;99885.50;;;26.14;28.72
60019;BME280;45870;42.528;26.740;2023-04-23T06:14:46;99886.94;;;28.55;26.50
60019;BME280;45870;42.528;26.740;2023-04-23T06:17:12;99899.63;;;23.31;32.13
60019;BME280;45870;42.528;26.740;2023-04-23T06:19:38;99890.53;;;21.64;35.85
60019;BME280;45870;42.528;26.740;2023-04-23T06:22:03;99876.94;;;27.82;26.77
60019;BME280;45870;42.528;26.740;2023-04-23T06:24:29;99878.25;;;30.39;23.05
60019;BME280;45870;42.528;26.740;2023-04-23T06:26:55;99888.84;;;30.18;23.37
60019;BME280;45870;42.528;26.740;2023-04-23T06:29:22;99887.34;;;22.93;34.17
60019;BME280;45870;42.528;26.740;2023-04-23T06:31:47;99885.50;;;27.23;27.59
60019;BME280;45870;42.528;26.740;2023-04-23T06:34:13;99886.69;;;32.38;20.24
60019;BME280;45870;42.528;26.740;2023-04-23T06:36:39;99883.25;;;35.17;18.23
60019;BME280;45870;42.528;26.740;2023-04-23T06:39:04;99860.50;;;31.36;21.89
60019;BME280;45870;42.528;26.740;2023-04-23T06:41:30;99737.03;;;30.59;21.32
60019;BME280;45870;42.528;26.740;2023-04-23T06:43:56;99884.81;;;27.92;26.46
60019;BME280;45870;42.528;26.740;2023-04-23T06:46:21;99896.13;;;25.31;31.81
60019;BME280;45870;42.528;26.740;2023-04-23T06:48:47;99863.22;;;25.73;29.03
60019;BME280;45870;42.528;26.740;2023-04-23T06:51:13;99882.41;;;25.78;28.48
60019;BME280;45870;42.528;26.740;2023-04-23T06:53:40;99890.78;;;29.43;24.60
60019;BME280;45870;42.528;26.740;2023-04-23T06:56:05;99891.94;;;23.64;31.38
60019;BME280;45870;42.528;26.740;2023-04-23T06:58:32;99850.91;;;27.74;27.39
60019;BME280;45870;42.528;26.740;2023-04-23T07:00:58;99891.91;;;30.29;22.01
60019;BME280;45870;42.528;26.740;2023-04-23T07:03:26;99892.75;;;25.98;29.12
60019;BME280;45870;42.528;26.740;2023-04-23T07:05:52;99897.47;;;28.50;25.44
60019;BME280;45870;42.528;26.740;2023-04-23T07:08:18;99887.41;;;23.68;30.58
60019;BME280;45870;42.528;26.740;2023-04-23T07:10:45;99841.25;;;24.87;28.29
60019;BME280;45870;42.528;26.740;2023-04-23T07:13:11;99895.78;;;29.09;22.77
60019;BME280;45870;42.528;26.740;2023-04-23T07:15:37;99890.22;;;25.76;26.60
60019;BME280;45870;42.528;26.740;2023-04-23T07:18:03;99884.00;;;25.96;25.67
60019;BME280;45870;42.528;26.740;2023-04-23T07:20:31;99896.78;;;28.41;24.52
60019;BME280;45870;42.528;26.740;2023-04-23T07:22:57;99891.44;;;29.95;20.31
60019;BME280;45870;42.528;26.740;2023-04-23T07:25:23;99892.97;;;29.93;19.91
60019;BME280;45870;42.528;26.740;2023-04-23T07:27:50;99890.84;;;32.02;18.87
60019;BME280;45870;42.528;26.740;2023-04-23T07:30:16;99883.00;;;30.89;19.49
60019;BME280;45870;42.528;26.740;2023-04-23T07:32:42;99890.41;;;29.72;22.20
60019;BME280;45870;42.528;26.740;2023-04-23T07:35:08;99897.09;;;23.88;28.69
60019;BME280;45870;42.528;26.740;2023-04-23T07:37:35;99883.63;;;29.85;22.26
60019;BME280;45870;42.528;26.740;2023-04-23T07:40:02;99857.09;;;27.47;24.12
60019;BME280;45870;42.528;26.740;2023-04-23T07:42:30;99891.66;;;26.87;24.35
60019;BME280;45870;42.528;26.740;2023-04-23T07:44:55;99845.53;;;26.91;25.41
60019;BME280;45870;42.528;26.740;2023-04-23T07:47:21;99897.84;;;29.12;23.98
60019;BME280;45870;42.528;26.740;2023-04-23T07:49:47;99881.19;;;30.31;22.49
60019;BME280;45870;42.528;26.740;2023-04-23T07:52:13;99892.72;;;29.70;22.11
60019;BME280;45870;42.528;26.740;2023-04-23T07:54:39;99878.34;;;28.00;24.58
60019;BME280;45870;42.528;26.740;2023-04-23T07:57:05;99882.38;;;25.87;27.57
60019;BME280;45870;42.528;26.740;2023-04-23T07:59:31;99882.94;;;30.86;20.75
60019;BME280;45870;42.528;26.740;2023-04-23T08:01:56;99883.16;;;30.30;22.14
60019;BME280;45870;42.528;26.740;2023-04-23T08:04:22;99883.53;;;32.17;20.01
60019;BME280;45870;42.528;26.740;2023-04-23T08:06:48;99869.13;;;31.50;22.33
60019;BME280;45870;42.528;26.740;2023-04-23T08:09:13;99872.81;;;32.45;18.81
60019;BME280;45870;42.528;26.740;2023-04-23T08:11:40;99872.34;;;35.05;16.16
60019;BME280;45870;42.528;26.740;2023-04-23T08:20:49;99874.81;;;32.45;18.68
60019;BME280;45870;42.528;26.740;2023-04-23T08:23:27;99868.81;;;32.43;18.85
60019;BME280;45870;42.528;26.740;2023-04-23T08:29:15;99870.59;;;28.66;22.66
60019;BME280;45870;42.528;26.740;2023-04-23T08:31:41;99868.31;;;27.50;24.20
60019;BME280;45870;42.528;26.740;2023-04-23T08:34:07;99868.16;;;26.64;25.00
60019;BME280;45870;42.528;26.740;2023-04-23T08:36:35;99866.28;;;30.89;19.86
60019;BME280;45870;42.528;26.740;2023-04-23T08:39:06;99862.78;;;31.11;21.13
60019;BME280;45870;42.528;26.740;2023-04-23T08:41:38;99864.09;;;30.63;21.39
60019;BME280;45870;42.528;26.740;2023-04-23T08:44:21;99865.25;;;26.60;24.40
60019;BME280;45870;42.528;26.740;2023-04-23T08:46:51;99853.84;;;28.02;23.54
60019;BME280;45870;42.528;26.740;2023-04-23T08:49:19;99860.28;;;26.24;27.58
60019;BME280;45870;42.528;26.740;2023-04-23T08:51:52;99856.00;;;27.39;23.11
60019;BME280;45870;42.528;26.740;2023-04-23T08:54:22;99853.84;;;26.41;24.34
60019;BME280;45870;42.528;26.740;2023-04-23T08:57:25;99830.69;;;26.16;25.95
60019;BME280;45870;42.528;26.740;2023-04-23T08:59:52;99858.63;;;25.05;26.42
60019;BME280;45870;42.528;26.740;2023-04-23T09:02:31;99831.13;;;24.00;30.56
60019;BME280;45870;42.528;26.740;2023-04-23T09:04:57;99850.31;;;24.79;27.93
60019;BME280;45870;42.528;26.740;2023-04-23T09:07:23;99842.19;;;26.77;24.86
60019;BME280;45870;42.528;26.740;2023-04-23T09:10:02;99832.66;;;27.07;26.63
60019;BME280;45870;42.528;26.740;2023-04-23T09:12:32;99836.06;;;27.46;22.68
60019;BME280;45870;42.528;26.740;2023-04-23T09:15:03;99844.13;;;27.96;23.41
60019;BME280;45870;42.528;26.740;2023-04-23T09:20:37;99839.31;;;27.48;22.34
60019;BME280;45870;42.528;26.740;2023-04-23T09:23:07;99833.41;;;28.31;23.05
60019;BME280;45870;42.528;26.740;2023-04-23T09:25:39;99844.97;;;26.27;25.36
60019;BME280;45870;42.528;26.740;2023-04-23T09:28:35;99835.78;;;25.59;28.79
60019;BME280;45870;42.528;26.740;2023-04-23T09:31:05;99832.75;;;25.26;28.00
60019;BME280;45870;42.528;26.740;2023-04-23T09:33:34;99833.47;;;27.98;24.65
60019;BME280;45870;42.528;26.740;2023-04-23T09:36:09;99837.31;;;26.53;25.19
60019;BME280;45870;42.528;26.740;2023-04-23T09:38:40;99836.72;;;27.10;24.70
60019;BME280;45870;42.528;26.740;2023-04-23T09:41:26;99824.28;;;25.95;25.58
60019;BME280;45870;42.528;26.740;2023-04-23T09:44:04;99829.69;;;24.76;26.08
60019;BME280;45870;42.528;26.740;2023-04-23T09:46:39;99835.81;;;25.33;27.64
60019;BME280;45870;42.528;26.740;2023-04-23T09:49:11;99826.47;;;24.83;27.32
60019;BME280;45870;42.528;26.740;2023-04-23T09:54:11;99835.28;;;24.20;26.38
60019;BME280;45870;42.528;26.740;2023-04-23T09:57:18;99828.88;;;25.10;24.33
60019;BME280;45870;42.528;26.740;2023-04-23T09:59:48;99821.53;;;24.37;28.43
60019;BME280;45870;42.528;26.740;2023-04-23T10:02:16;99820.22;;;26.30;24.02
60019;BME280;45870;42.528;26.740;2023-04-23T10:04:52;99783.88;;;27.60;22.68
60019;BME280;45870;42.528;26.740;2023-04-23T10:10:07;99818.16;;;24.92;30.55
60019;BME280;45870;42.528;26.740;2023-04-23T10:12:33;99814.38;;;25.39;25.06
60019;BME280;45870;42.528;26.740;2023-04-23T10:15:02;99815.38;;;24.49;28.74
60019;BME280;45870;42.528;26.740;2023-04-23T10:17:29;99801.75;;;24.95;26.00
60019;BME280;45870;42.528;26.740;2023-04-23T10:19:55;99796.06;;;26.10;25.48
60019;BME280;45870;42.528;26.740;2023-04-23T10:22:23;99806.53;;;24.12;28.26
60019;BME280;45870;42.528;26.740;2023-04-23T10:24:52;99803.34;;;24.53;27.36
60019;BME280;45870;42.528;26.740;2023-04-23T10:27:21;99757.31;;;23.18;29.87
60019;BME280;45870;42.528;26.740;2023-04-23T10:29:47;99793.31;;;24.66;29.93
60019;BME280;45870;42.528;26.740;2023-04-23T10:32:14;99792.00;;;23.81;27.92
60019;BME280;45870;42.528;26.740;2023-04-23T10:34:41;99783.22;;;24.78;27.41
60019;BME280;45870;42.528;26.740;2023-04-23T10:37:07;99783.56;;;24.34;27.99
60019;BME280;45870;42.528;26.740;2023-04-23T10:39:34;99778.09;;;25.41;27.29
60019;BME280;45870;42.528;26.740;2023-04-23T10:42:01;99733.56;;;24.27;29.06
60019;BME280;45870;42.528;26.740;2023-04-23T10:44:37;99780.53;;;24.05;29.36
60019;BME280;45870;42.528;26.740;2023-04-23T10:47:04;99772.47;;;26.75;23.12
60019;BME280;45870;42.528;26.740;2023-04-23T10:49:31;99729.84;;;24.49;25.49
60019;BME280;45870;42.528;26.740;2023-04-23T10:52:01;99769.44;;;25.97;23.98
60019;BME280;45870;42.528;26.740;2023-04-23T10:54:30;99712.22;;;22.39;30.32
60019;BME280;45870;42.528;26.740;2023-04-23T10:56:59;99764.41;;;22.88;29.43
60019;BME280;45870;42.528;26.740;2023-04-23T10:59:26;99764.13;;;23.91;24.71
60019;BME280;45870;42.528;26.740;2023-04-23T11:01:55;99760.88;;;26.19;21.38
60019;BME280;45870;42.528;26.740;2023-04-23T11:04:27;99763.44;;;24.51;25.63
60019;BME280;45870;42.528;26.740;2023-04-23T11:06:56;99767.03;;;23.86;25.72
60019;BME280;45870;42.528;26.740;2023-04-23T11:09:37;99754.16;;;24.98;26.27
60019;BME280;45870;42.528;26.740;2023-04-23T11:12:06;99765.81;;;24.09;27.65
60019;BME280;45870;42.528;26.740;2023-04-23T11:14:49;99749.59;;;25.11;25.21
60019;BME280;45870;42.528;26.740;2023-04-23T11:17:23;99746.88;;;25.57;24.00
60019;BME280;45870;42.528;26.740;2023-04-23T11:20:08;99755.03;;;26.42;23.14
60019;BME280;45870;42.528;26.740;2023-04-23T11:22:39;99746.94;;;25.23;26.23
60019;BME280;45870;42.528;26.740;2023-04-23T11:25:11;99742.81;;;23.04;27.71
60019;BME280;45870;42.528;26.740;2023-04-23T11:27:39;99740.22;;;22.63;26.37
60019;BME280;45870;42.528;26.740;2023-04-23T11:30:14;99741.09;;;22.86;29.30
60019;BME280;45870;42.528;26.740;2023-04-23T11:32:43;99743.44;;;24.28;23.89
60019;BME280;45870;42.528;26.740;2023-04-23T11:35:09;99735.28;;;26.22;21.89
60019;BME280;45870;42.528;26.740;2023-04-23T11:37:40;99738.09;;;26.97;21.61
60019;BME280;45870;42.528;26.740;2023-04-23T11:40:07;99739.41;;;24.17;25.74
60019;BME280;45870;42.528;26.740;2023-04-23T11:42:42;99681.09;;;24.01;26.09
60019;BME280;45870;42.528;26.740;2023-04-23T11:45:16;99745.53;;;22.60;29.32
60019;BME280;45870;42.528;26.740;2023-04-23T11:47:43;99739.66;;;22.53;29.47
60019;BME280;45870;42.528;26.740;2023-04-23T11:50:09;99740.97;;;23.53;26.36
60019;BME280;45870;42.528;26.740;2023-04-23T11:52:35;99733.16;;;25.69;23.00
60019;BME280;45870;42.528;26.740;2023-04-23T11:55:07;99731.19;;;27.60;21.61
60019;BME280;45870;42.528;26.740;2023-04-23T11:57:40;99731.41;;;23.50;26.79
60019;BME280;45870;42.528;26.740;2023-04-23T12:00:11;99730.91;;;26.42;26.33
60019;BME280;45870;42.528;26.740;2023-04-23T12:05:21;99720.41;;;26.68;23.91
60019;BME280;45870;42.528;26.740;2023-04-23T12:07:48;99714.44;;;26.46;24.52
60019;BME280;45870;42.528;26.740;2023-04-23T12:10:19;99712.28;;;24.79;27.55
60019;BME280;45870;42.528;26.740;2023-04-23T12:12:49;99714.25;;;24.87;29.66
60019;BME280;45870;42.528;26.740;2023-04-23T12:15:15;99702.75;;;24.59;27.67
60019;BME280;45870;42.528;26.740;2023-04-23T12:17:41;99711.25;;;23.89;28.61
60019;BME280;45870;42.528;26.740;2023-04-23T12:20:18;99709.59;;;23.71;29.96
60019;BME280;45870;42.528;26.740;2023-04-23T12:22:45;99709.78;;;23.83;26.52
60019;BME280;45870;42.528;26.740;2023-04-23T12:25:11;99694.03;;;25.50;25.87
60019;BME280;45870;42.528;26.740;2023-04-23T12:27:40;99689.41;;;24.87;25.88
60019;BME280;45870;42.528;26.740;2023-04-23T12:30:10;99687.28;;;26.60;25.81
60019;BME280;45870;42.528;26.740;2023-04-23T12:32:36;99687.09;;;28.59;20.93
60019;BME280;45870;42.528;26.740;2023-04-23T12:35:02;99680.66;;;25.90;24.78
60019;BME280;45870;42.528;26.740;2023-04-23T12:37:35;99678.91;;;25.48;23.24
60019;BME280;45870;42.528;26.740;2023-04-23T12:40:01;99655.22;;;27.04;21.29
60019;BME280;45870;42.528;26.740;2023-04-23T12:42:27;99676.44;;;28.89;18.57
60019;BME280;45870;42.528;26.740;2023-04-23T12:44:52;99673.34;;;31.45;18.07
60019;BME280;45870;42.528;26.740;2023-04-23T12:47:20;99668.25;;;30.44;21.08
60019;BME280;45870;42.528;26.740;2023-04-23T12:49:47;99623.38;;;27.70;22.20
60019;BME280;45870;42.528;26.740;2023-04-23T12:52:17;99667.03;;;28.65;21.76
60019;BME280;45870;42.528;26.740;2023-04-23T12:54:42;99611.56;;;30.75;18.53
60019;BME280;45870;42.528;26.740;2023-04-23T12:57:11;99666.09;;;27.09;22.62
60019;BME280;45870;42.528;26.740;2023-04-23T12:59:37;99651.31;;;28.57;25.31
60019;BME280;45870;42.528;26.740;2023-04-23T13:02:03;99649.53;;;29.87;20.12
60019;BME280;45870;42.528;26.740;2023-04-23T13:04:34;99647.88;;;27.44;21.74
60019;BME280;45870;42.528;26.740;2023-04-23T13:07:00;99647.97;;;26.33;26.29
60019;BME280;45870;42.528;26.740;2023-04-23T13:09:27;99655.28;;;26.50;25.28
60019;BME280;45870;42.528;26.740;2023-04-23T13:11:53;99649.16;;;28.78;21.75
60019;BME280;45870;42.528;26.740;2023-04-23T13:14:19;99645.97;;;29.08;20.82